Time;durP1;ratioP1;P1;durP2;ratioP2;P2;SDS_P1;SDS_P2;PMS_P1;PMS_P2;Temp;Humidity;BMP_temperature;BMP_pressure;BME280_temperature;BME280_humidity;BME280_pressure;Samples;Min_cycle;Max_cycle;Signal;HPM_P1;HPM_P2
2022/08/07 00:01:27;;;;;;;;;;;;;;;;;;6293540;22;20002;-87
2022/08/07 00:03:53;;;;;;;;;;;;;;;;;;6296053;22;20339;-87
2022/08/07 00:06:19;;;;;;;;;;;;;;;;;;6264996;22;19958;-87
2022/08/07 00:08:48;;;;;;;;;;;;;;;;;;6268200;22;19925;-87
2022/08/07 00:11:14;;;;;;;;;;;;;;;;;;6291953;22;20124;-87
2022/08/07 00:13:44;;;;;;;;;;;;;;;;;;6292200;22;19915;-87
2022/08/07 00:16:10;;;;;;;;;;;;;;;;;;6287191;22;20303;-87
2022/08/07 00:18:36;;;;;;;;;;;;;;;;;;6238109;22;19950;-87
2022/08/07 00:21:02;;;;;;;;;;;;;;;;;;6260564;22;20251;-87
2022/08/07 00:23:28;;;;;;;;;;;;;;;;;;6265716;22;19911;-87
2022/08/07 00:25:54;;;;;;;;;;;;;;;;;;6265626;22;19926;-87
2022/08/07 00:28:23;;;;;;;;;;;;;;;;;;6239241;22;20240;-87
2022/08/07 00:30:49;;;;;;;;;;;;;;;;;;6291910;22;19914;-87
2022/08/07 00:33:15;;;;;;;;;;;;;;;;;;6290375;22;19915;-87
2022/08/07 00:35:41;;;;;;;;;;;;;;;;;;6265716;22;19922;-87
2022/08/07 00:38:10;;;;;;;;;;;;;;;;;;6261598;22;20653;-87
2022/08/07 00:40:36;;;;;;;;;;;;;;;;;;6288475;22;19919;-87
2022/08/07 00:43:02;;;;;;;;;;;;;;;;;;6236976;22;19915;-88
2022/08/07 00:45:29;;;;;;;;;;;;;;;;;;6262611;22;19943;-87
2022/08/07 00:47:54;;;;;;;;;;;;;;;;;;6264004;22;19919;-87
2022/08/07 00:50:20;;;;;;;;;;;;;;;;;;6235799;22;19914;-87
2022/08/07 00:52:46;;;;;;;;;;;;;;;;;;6264721;22;19964;-87
2022/08/07 00:55:15;;;;;;;;;;;;;;;;;;6263107;22;19925;-87
2022/08/07 00:57:42;;;;;;;;;;;;;;;;;;6263205;22;19918;-87
2022/08/07 01:00:08;;;;;;;;;;;;;;;;;;6286632;22;19937;-86
2022/08/07 01:02:34;;;;;;;;;;;;;;;;;;6264782;22;20331;-87
2022/08/07 01:05:00;;;;;;;;;;;;;;;;;;6263435;22;19960;-87
2022/08/07 01:07:26;;;;;;;;;;;;;;;;;;6265004;22;19915;-86
2022/08/07 01:09:58;;;;;;;;;;;;;;;;;;6264182;22;19979;-86
2022/08/07 01:12:24;;;;;;;;;;;;;;;;;;6262500;22;19911;-86
2022/08/07 01:14:52;;;;;;;;;;;;;;;;;;6239091;22;20644;-87
2022/08/07 01:17:18;;;;;;;;;;;;;;;;;;6262624;22;19933;-86
2022/08/07 01:19:47;;;;;;;;;;;;;;;;;;6264052;22;19986;-86
2022/08/07 01:22:13;;;;;;;;;;;;;;;;;;6263711;22;20327;-86
2022/08/07 01:24:39;;;;;;;;;;;;;;;;;;6265228;22;19914;-87
2022/08/07 01:27:05;;;;;;;;;;;;;;;;;;6238194;22;20372;-87
2022/08/07 01:29:32;;;;;;;;;;;;;;;;;;6267347;22;19964;-86
2022/08/07 01:32:02;;;;;;;;;;;;;;;;;;6259772;22;19915;-87
2022/08/07 01:34:31;;;;;;;;;;;;;;;;;;6263000;22;20141;-87
2022/08/07 01:37:00;;;;;;;;;;;;;;;;;;6235959;22;20445;-87
2022/08/07 01:39:29;;;;;;;;;;;;;;;;;;6262550;22;19921;-87
2022/08/07 01:41:55;;;;;;;;;;;;;;;;;;6259265;22;19956;-87
2022/08/07 01:44:30;;;;;;;;;;;;;;;;;;6260248;22;20021;-87
2022/08/07 01:46:56;;;;;;;;;;;;;;;;;;6265328;22;20231;-87
2022/08/07 01:49:22;;;;;;;;;;;;;;;;;;6267824;22;19917;-87
2022/08/07 01:52:01;;;;;;;;;;;;;;;;;;6304661;22;19921;-87
2022/08/07 01:54:27;;;;;;;;;;;;;;;;;;6267410;22;19994;-87
2022/08/07 01:56:56;;;;;;;;;;;;;;;;;;6268673;22;20369;-87
2022/08/07 01:59:23;;;;;;;;;;;;;;;;;;6267047;22;19911;-87
2022/08/07 02:01:49;;;;;;;;;;;;;;;;;;6266822;22;20469;-86
2022/08/07 02:04:16;;;;;;;;;;;;;;;;;;6266067;22;19910;-87
2022/08/07 02:06:42;;;;;;;;;;;;;;;;;;6269617;22;19953;-87
2022/08/07 02:09:08;;;;;;;;;;;;;;;;;;6240636;22;19915;-87
2022/08/07 02:11:34;;;;;;;;;;;;;;;;;;6268173;22;19963;-87
2022/08/07 02:14:00;;;;;;;;;;;;;;;;;;6266954;22;20331;-87
2022/08/07 02:16:31;;;;;;;;;;;;;;;;;;6263820;22;19921;-87
2022/08/07 02:19:00;;;;;;;;;;;;;;;;;;6264088;22;19911;-87
2022/08/07 02:21:25;;;;;;;;;;;;;;;;;;6260252;22;19938;-87
2022/08/07 02:23:52;;;;;;;;;;;;;;;;;;6263685;22;19914;-87
2022/08/07 02:26:23;;;;;;;;;;;;;;;;;;6262230;22;19921;-87
2022/08/07 02:28:49;;;;;;;;;;;;;;;;;;6264755;22;19914;-87
2022/08/07 02:31:15;;;;;;;;;;;;;;;;;;6261642;22;19919;-87
2022/08/07 02:33:41;;;;;;;;;;;;;;;;;;6268314;22;19921;-87
2022/08/07 02:36:07;;;;;;;;;;;;;;;;;;6239200;22;19915;-87
2022/08/07 02:38:36;;;;;;;;;;;;;;;;;;6263677;22;19910;-87
2022/08/07 02:41:02;;;;;;;;;;;;;;;;;;6237919;22;19986;-87
2022/08/07 02:43:28;;;;;;;;;;;;;;;;;;6264388;22;20331;-87
2022/08/07 02:45:54;;;;;;;;;;;;;;;;;;6291725;22;19918;-87
2022/08/07 02:48:20;;;;;;;;;;;;;;;;;;6260295;22;20418;-86
2022/08/07 02:50:46;;;;;;;;;;;;;;;;;;6263992;22;19915;-87
2022/08/07 02:53:12;;;;;;;;;;;;;;;;;;6259680;22;19983;-87
2022/08/07 02:55:40;;;;;;;;;;;;;;;;;;6264076;22;19915;-87
2022/08/07 02:58:09;;;;;;;;;;;;;;;;;;6286540;22;19968;-87
2022/08/07 03:00:35;;;;;;;;;;;;;;;;;;6238016;22;19927;-86
2022/08/07 03:03:01;;;;;;;;;;;;;;;;;;6259972;22;19915;-87
2022/08/07 03:05:27;;;;;;;;;;;;;;;;;;6263188;22;19914;-87
2022/08/07 03:07:53;;;;;;;;;;;;;;;;;;6288144;22;20449;-87
2022/08/07 03:10:19;;;;;;;;;;;;;;;;;;6258365;22;19953;-87
2022/08/07 03:12:45;;;;;;;;;;;;;;;;;;6237251;22;19989;-86
2022/08/07 03:15:14;;;;;;;;;;;;;;;;;;6233319;22;20041;-87
2022/08/07 03:17:40;;;;;;;;;;;;;;;;;;6261601;22;19915;-87
2022/08/07 03:20:06;;;;;;;;;;;;;;;;;;6259302;22;19925;-87
2022/08/07 03:22:32;;;;;;;;;;;;;;;;;;6261751;22;19976;-87
2022/08/07 03:25:01;;;;;;;;;;;;;;;;;;6260495;22;19922;-87
2022/08/07 03:27:27;;;;;;;;;;;;;;;;;;6263502;22;20421;-86
2022/08/07 03:29:54;;;;;;;;;;;;;;;;;;6261201;22;19915;-86
2022/08/07 03:32:22;;;;;;;;;;;;;;;;;;6260915;22;19917;-87
2022/08/07 03:34:51;;;;;;;;;;;;;;;;;;6260666;22;20354;-87
2022/08/07 03:37:17;;;;;;;;;;;;;;;;;;6260540;22;19915;-87
2022/08/07 03:39:42;;;;;;;;;;;;;;;;;;6259313;22;19993;-87
2022/08/07 03:42:08;;;;;;;;;;;;;;;;;;6258950;22;19961;-87
2022/08/07 03:44:34;;;;;;;;;;;;;;;;;;6261563;22;19929;-87
2022/08/07 03:47:03;;;;;;;;;;;;;;;;;;6263370;22;19918;-87
2022/08/07 03:49:32;;;;;;;;;;;;;;;;;;6240352;22;20251;-87
2022/08/07 03:51:59;;;;;;;;;;;;;;;;;;6263880;22;19915;-88
2022/08/07 03:54:25;;;;;;;;;;;;;;;;;;6240604;22;19919;-87
2022/08/07 03:56:51;;;;;;;;;;;;;;;;;;6267221;22;19938;-87
2022/08/07 03:59:17;;;;;;;;;;;;;;;;;;6296116;22;20297;-87
2022/08/07 04:01:43;;;;;;;;;;;;;;;;;;6265943;22;19925;-87
2022/08/07 04:04:11;;;;;;;;;;;;;;;;;;6265305;22;20025;-87
2022/08/07 04:06:39;;;;;;;;;;;;;;;;;;6293719;22;19919;-87
2022/08/07 04:09:05;;;;;;;;;;;;;;;;;;6295224;22;20229;-86
2022/08/07 04:11:34;;;;;;;;;;;;;;;;;;6268295;22;20277;-86
2022/08/07 04:14:07;;;;;;;;;;;;;;;;;;6265786;22;19922;-87
2022/08/07 04:16:36;;;;;;;;;;;;;;;;;;6265417;22;20243;-87
2022/08/07 04:19:02;;;;;;;;;;;;;;;;;;6262146;22;19915;-86
2022/08/07 04:21:28;;;;;;;;;;;;;;;;;;6261758;22;19929;-87
2022/08/07 04:23:54;;;;;;;;;;;;;;;;;;6289784;22;19954;-87
2022/08/07 04:26:20;;;;;;;;;;;;;;;;;;6261277;22;20699;-87
2022/08/07 04:28:49;;;;;;;;;;;;;;;;;;6238205;22;19917;-87
2022/08/07 04:31:15;;;;;;;;;;;;;;;;;;6260984;22;20312;-87
2022/08/07 04:33:41;;;;;;;;;;;;;;;;;;6290085;22;19950;-86
2022/08/07 04:36:10;;;;;;;;;;;;;;;;;;6258711;22;19915;-87
2022/08/07 04:38:36;;;;;;;;;;;;;;;;;;6289832;22;19917;-86
2022/08/07 04:41:02;;;;;;;;;;;;;;;;;;6259932;22;19958;-87
2022/08/07 04:43:28;;;;;;;;;;;;;;;;;;6237665;22;20355;-86
2022/08/07 04:45:56;;;;;;;;;;;;;;;;;;6263044;22;19922;-86
2022/08/07 04:48:22;;;;;;;;;;;;;;;;;;6259463;22;19911;-86
2022/08/07 04:50:56;;;;;;;;;;;;;;;;;;6237343;22;19986;-86
2022/08/07 04:53:22;;;;;;;;;;;;;;;;;;6261179;22;19910;-87
2022/08/07 04:55:48;;;;;;;;;;;;;;;;;;6237640;22;19914;-87
2022/08/07 04:58:16;;;;;;;;;;;;;;;;;;6261855;22;19950;-86
2022/08/07 05:00:42;;;;;;;;;;;;;;;;;;6262173;22;19922;-87
2022/08/07 05:03:08;;;;;;;;;;;;;;;;;;6259450;22;19915;-87
2022/08/07 05:05:35;;;;;;;;;;;;;;;;;;6263305;22;19915;-87
2022/08/07 05:08:01;;;;;;;;;;;;;;;;;;6260227;22;19990;-87
2022/08/07 05:10:27;;;;;;;;;;;;;;;;;;6263768;22;19961;-86
2022/08/07 05:12:53;;;;;;;;;;;;;;;;;;6264125;22;19981;-86
2022/08/07 05:15:19;;;;;;;;;;;;;;;;;;6289180;22;20616;-86
2022/08/07 05:17:45;;;;;;;;;;;;;;;;;;6289974;22;20674;-86
2022/08/07 05:20:11;;;;;;;;;;;;;;;;;;6262088;22;19926;-86
2022/08/07 05:22:39;;;;;;;;;;;;;;;;;;6262995;22;19921;-86
2022/08/07 05:25:05;;;;;;;;;;;;;;;;;;6237874;22;19915;-86
2022/08/07 05:27:31;;;;;;;;;;;;;;;;;;6263042;22;19915;-87
2022/08/07 05:30:00;;;;;;;;;;;;;;;;;;6261111;22;20033;-87
2022/08/07 05:32:26;;;;;;;;;;;;;;;;;;6262792;22;19960;-86
2022/08/07 05:34:52;;;;;;;;;;;;;;;;;;6263157;22;19945;-87
2022/08/07 05:37:18;;;;;;;;;;;;;;;;;;6260037;22;20428;-87
2022/08/07 05:39:44;;;;;;;;;;;;;;;;;;6266958;22;19922;-86
2022/08/07 05:42:10;;;;;;;;;;;;;;;;;;6264469;22;19925;-86
2022/08/07 05:44:36;;;;;;;;;;;;;;;;;;6265658;22;19986;-85
2022/08/07 05:47:03;;;;;;;;;;;;;;;;;;6264292;22;19915;-86
2022/08/07 05:49:29;;;;;;;;;;;;;;;;;;6267765;22;19980;-86
2022/08/07 05:52:07;;;;;;;;;;;;;;;;;;6267712;22;19911;-86
2022/08/07 05:54:36;;;;;;;;;;;;;;;;;;6266849;22;19946;-86
2022/08/07 05:57:02;;;;;;;;;;;;;;;;;;6260022;22;19919;-87
2022/08/07 05:59:35;;;;;;;;;;;;;;;;;;6213157;22;19915;-86
2022/08/07 06:02:01;;;;;;;;;;;;;;;;;;6233669;22;19994;-86
2022/08/07 06:04:27;;;;;;;;;;;;;;;;;;6234641;22;19915;-86
2022/08/07 06:06:53;;;;;;;;;;;;;;;;;;6234128;22;19922;-86
2022/08/07 06:09:22;;;;;;;;;;;;;;;;;;6233207;22;19915;-87
2022/08/07 06:11:48;;;;;;;;;;;;;;;;;;6235777;22;19918;-87
2022/08/07 06:14:20;;;;;;;;;;;;;;;;;;6230396;22;19919;-87
2022/08/07 06:16:49;;;;;;;;;;;;;;;;;;6230728;22;20011;-87
2022/08/07 06:19:15;;;;;;;;;;;;;;;;;;6226522;22;20534;-87
2022/08/07 06:21:41;;;;;;;;;;;;;;;;;;6229443;22;20015;-87
2022/08/07 06:24:10;;;;;;;;;;;;;;;;;;6230480;22;19973;-87
2022/08/07 06:26:36;;;;;;;;;;;;;;;;;;6233515;22;20605;-86
2022/08/07 06:29:03;;;;;;;;;;;;;;;;;;6230015;22;19918;-86
2022/08/07 06:31:29;;;;;;;;;;;;;;;;;;6258241;22;19952;-86
2022/08/07 06:34:00;;;;;;;;;;;;;;;;;;6256103;22;19994;-87
2022/08/07 06:36:26;;;;;;;;;;;;;;;;;;6258067;22;19951;-87
2022/08/07 06:38:52;;;;;;;;;;;;;;;;;;6256869;22;20014;-86
2022/08/07 06:41:18;;;;;;;;;;;;;;;;;;6254217;22;20024;-87
2022/08/07 06:43:44;;;;;;;;;;;;;;;;;;6230717;22;19919;-87
2022/08/07 06:46:13;;;;;;;;;;;;;;;;;;6227416;22;19914;-87
2022/08/07 06:48:39;;;;;;;;;;;;;;;;;;6230482;22;20521;-87
2022/08/07 06:51:05;;;;;;;;;;;;;;;;;;6228153;22;19994;-87
2022/08/07 06:53:36;;;;;;;;;;;;;;;;;;6230717;22;19963;-87
2022/08/07 06:56:02;;;;;;;;;;;;;;;;;;6227457;22;19965;-87
2022/08/07 06:58:28;;;;;;;;;;;;;;;;;;6250685;22;19918;-87
2022/08/07 07:00:56;;;;;;;;;;;;;;;;;;6260662;22;20187;-87
2022/08/07 07:03:22;;;;;;;;;;;;;;;;;;6259645;22;19914;-87
2022/08/07 07:05:48;;;;;;;;;;;;;;;;;;6284477;22;19915;-87
2022/08/07 07:08:17;;;;;;;;;;;;;;;;;;6229085;22;19946;-87
2022/08/07 07:10:44;;;;;;;;;;;;;;;;;;6285769;22;19922;-87
2022/08/07 07:13:12;;;;;;;;;;;;;;;;;;6285203;22;20296;-87
2022/08/07 07:15:39;;;;;;;;;;;;;;;;;;6286687;22;19910;-87
2022/08/07 07:18:10;;;;;;;;;;;;;;;;;;6233492;22;20331;-87
2022/08/07 07:20:41;;;;;;;;;;;;;;;;;;6260828;22;19915;-87
2022/08/07 07:23:08;;;;;;;;;;;;;;;;;;6282478;22;19914;-87
2022/08/07 07:25:34;;;;;;;;;;;;;;;;;;6286834;22;19918;-87
2022/08/07 07:28:11;;;;;;;;;;;;;;;;;;6285996;22;20031;-87
2022/08/07 07:30:40;;;;;;;;;;;;;;;;;;6260571;22;19915;-87
2022/08/07 07:33:06;;;;;;;;;;;;;;;;;;6257714;22;20630;-87
2022/08/07 07:35:33;;;;;;;;;;;;;;;;;;6234750;22;19989;-87
2022/08/07 07:38:04;;;;;;;;;;;;;;;;;;6256052;22;20009;-87
2022/08/07 07:40:52;;;;;;;;;;;;;;;;;;6260110;22;19922;-87
2022/08/07 07:43:19;;;;;;;;;;;;;;;;;;6285609;22;19910;-87
2022/08/07 07:45:47;;;;;;;;;;;;;;;;;;6263097;22;19918;-88
2022/08/07 07:48:18;;;;;;;;;;;;;;;;;;6262151;22;19915;-87
2022/08/07 07:50:45;;;;;;;;;;;;;;;;;;6291903;22;19968;-87
2022/08/07 07:53:15;;;;;;;;;;;;;;;;;;6263393;22;19925;-87
2022/08/07 07:55:47;;;;;;;;;;;;;;;;;;6241750;22;19996;-87
2022/08/07 07:58:14;;;;;;;;;;;;;;;;;;6263712;22;19919;-87
2022/08/07 08:00:43;;;;;;;;;;;;;;;;;;6265101;22;20328;-87
2022/08/07 08:03:09;;;;;;;;;;;;;;;;;;6293020;22;19911;-87
2022/08/07 08:05:35;;;;;;;;;;;;;;;;;;6294634;22;19959;-87
2022/08/07 08:08:02;;;;;;;;;;;;;;;;;;6263930;22;19914;-87
2022/08/07 08:10:28;;;;;;;;;;;;;;;;;;6265624;22;19911;-87
2022/08/07 08:12:54;;;;;;;;;;;;;;;;;;6268653;22;19968;-87
2022/08/07 08:15:20;;;;;;;;;;;;;;;;;;6263652;22;19921;-86
2022/08/07 08:17:49;;;;;;;;;;;;;;;;;;6263579;22;19950;-87
2022/08/07 08:20:17;;;;;;;;;;;;;;;;;;6260185;22;19918;-87
2022/08/07 08:28:20;;;;;;;;;;;;;;;;;;6286706;22;19941;-87
2022/08/07 08:30:46;;;;;;;;;;;;;;;;;;6262769;22;19915;-87
2022/08/07 08:33:15;;;;;;;;;;;;;;;;;;6258766;22;19964;-88
2022/08/07 08:35:41;;;;;;;;;;;;;;;;;;6288229;22;20291;-87
2022/08/07 08:38:07;;;;;;;;;;;;;;;;;;6280579;22;19946;-87
2022/08/07 08:40:36;;;;;;;;;;;;;;;;;;6259924;22;20237;-87
2022/08/07 08:43:05;;;;;;;;;;;;;;;;;;6257218;22;19994;-87
2022/08/07 08:45:31;;;;;;;;;;;;;;;;;;6259428;22;20335;-87
2022/08/07 08:47:57;;;;;;;;;;;;;;;;;;6263473;22;20251;-86
2022/08/07 08:50:25;;;;;;;;;;;;;;;;;;6259580;22;19915;-87
2022/08/07 08:52:51;;;;;;;;;;;;;;;;;;6263436;22;20267;-88
2022/08/07 08:55:17;;;;;;;;;;;;;;;;;;6258316;22;19914;-88
2022/08/07 08:57:43;;;;;;;;;;;;;;;;;;6262004;22;20255;-88
2022/08/07 09:00:17;;;;;;;;;;;;;;;;;;6260325;22;19915;-87
2022/08/07 09:02:44;;;;;;;;;;;;;;;;;;6256416;22;20032;-86
2022/08/07 09:05:10;;;;;;;;;;;;;;;;;;6256509;22;20000;-88
2022/08/07 09:07:38;;;;;;;;;;;;;;;;;;6261453;22;19922;-87
2022/08/07 09:10:10;;;;;;;;;;;;;;;;;;6260867;22;19915;-87
2022/08/07 09:12:36;;;;;;;;;;;;;;;;;;6286338;22;20405;-87
2022/08/07 09:15:04;;;;;;;;;;;;;;;;;;6257993;22;19915;-87
2022/08/07 09:17:30;;;;;;;;;;;;;;;;;;6262228;22;19915;-87
2022/08/07 09:19:56;;;;;;;;;;;;;;;;;;6261491;22;19911;-87
2022/08/07 09:22:25;;;;;;;;;;;;;;;;;;6230141;22;19915;-88
2022/08/07 09:24:51;;;;;;;;;;;;;;;;;;6260412;22;20243;-87
2022/08/07 09:27:17;;;;;;;;;;;;;;;;;;6260392;22;19918;-87
2022/08/07 09:29:56;;;;;;;;;;;;;;;;;;6263175;22;20362;-88
2022/08/07 09:32:24;;;;;;;;;;;;;;;;;;6258593;22;20333;-87
2022/08/07 09:34:50;;;;;;;;;;;;;;;;;;6262071;22;19946;-87
2022/08/07 09:37:22;;;;;;;;;;;;;;;;;;6263282;22;19921;-87
2022/08/07 09:39:49;;;;;;;;;;;;;;;;;;6266408;22;19914;-87
2022/08/07 09:42:15;;;;;;;;;;;;;;;;;;6262313;22;20022;-88
2022/08/07 09:44:41;;;;;;;;;;;;;;;;;;6239847;22;19915;-87
2022/08/07 09:47:07;;;;;;;;;;;;;;;;;;6263431;22;20040;-86
2022/08/07 09:49:33;;;;;;;;;;;;;;;;;;6268516;22;19950;-86
2022/08/07 09:52:01;;;;;;;;;;;;;;;;;;6258615;22;19921;-87
2022/08/07 09:54:30;;;;;;;;;;;;;;;;;;6260077;22;19910;-87
2022/08/07 09:56:56;;;;;;;;;;;;;;;;;;6231822;22;19917;-87
2022/08/07 09:59:22;;;;;;;;;;;;;;;;;;6284165;22;19949;-87
2022/08/07 10:01:48;;;;;;;;;;;;;;;;;;6261113;22;19961;-86
2022/08/07 10:04:14;;;;;;;;;;;;;;;;;;6232923;22;20304;-87
2022/08/07 10:06:40;;;;;;;;;;;;;;;;;;6259713;22;19914;-87
2022/08/07 10:09:06;;;;;;;;;;;;;;;;;;6259086;22;19921;-91
2022/08/07 10:11:32;;;;;;;;;;;;;;;;;;6263850;22;19957;-86
2022/08/07 10:14:05;;;;;;;;;;;;;;;;;;6263753;22;20324;-86
2022/08/07 10:16:34;;;;;;;;;;;;;;;;;;6264019;22;19918;-86
2022/08/07 10:19:03;;;;;;;;;;;;;;;;;;6259028;22;19954;-87
2022/08/07 10:21:29;;;;;;;;;;;;;;;;;;6259137;22;19993;-87
2022/08/07 10:23:56;;;;;;;;;;;;;;;;;;6255795;22;19972;-87
2022/08/07 10:26:25;;;;;;;;;;;;;;;;;;6261178;22;20228;-86
2022/08/07 10:28:51;;;;;;;;;;;;;;;;;;6232246;22;19914;-85
2022/08/07 10:31:17;;;;;;;;;;;;;;;;;;6280703;22;19914;-86
2022/08/07 10:33:43;;;;;;;;;;;;;;;;;;6237807;22;20035;-86
2022/08/07 10:36:09;;;;;;;;;;;;;;;;;;6236058;22;19965;-87
2022/08/07 10:38:38;;;;;;;;;;;;;;;;;;6289490;22;20367;-86
2022/08/07 10:41:04;;;;;;;;;;;;;;;;;;6285757;22;19923;-87
2022/08/07 10:43:42;;;;;;;;;;;;;;;;;;6289084;22;19917;-87
2022/08/07 10:46:08;;;;;;;;;;;;;;;;;;6258455;22;20002;-86
2022/08/07 10:48:35;;;;;;;;;;;;;;;;;;6286480;22;19954;-88
2022/08/07 10:51:01;;;;;;;;;;;;;;;;;;6258967;22;19919;-86
2022/08/07 10:53:29;;;;;;;;;;;;;;;;;;6264502;22;19915;-86
2022/08/07 10:55:58;;;;;;;;;;;;;;;;;;6265074;22;19921;-86
2022/08/07 10:58:24;;;;;;;;;;;;;;;;;;6262305;22;20418;-86
2022/08/07 11:00:50;;;;;;;;;;;;;;;;;;6261850;22;19918;-85
2022/08/07 11:03:16;;;;;;;;;;;;;;;;;;6258399;22;19915;-84
2022/08/07 11:05:45;;;;;;;;;;;;;;;;;;6260994;22;19937;-86
2022/08/07 11:08:11;;;;;;;;;;;;;;;;;;6233135;22;20035;-86
2022/08/07 11:10:38;;;;;;;;;;;;;;;;;;6236222;22;19915;-86
2022/08/07 11:13:04;;;;;;;;;;;;;;;;;;6236549;22;19926;-86
2022/08/07 11:15:30;;;;;;;;;;;;;;;;;;6264825;22;19914;-86
2022/08/07 11:17:56;;;;;;;;;;;;;;;;;;6263363;22;19914;-87
2022/08/07 11:20:22;;;;;;;;;;;;;;;;;;6260136;22;19918;-85
2022/08/07 11:22:48;;;;;;;;;;;;;;;;;;6263342;22;19922;-86
2022/08/07 11:25:14;;;;;;;;;;;;;;;;;;6235076;22;20142;-86
2022/08/07 11:27:50;;;;;;;;;;;;;;;;;;6259190;22;19915;-88
2022/08/07 11:30:24;;;;;;;;;;;;;;;;;;6263058;22;19915;-88
2022/08/07 11:32:50;;;;;;;;;;;;;;;;;;6241053;22;19915;-88
2022/08/07 11:35:17;;;;;;;;;;;;;;;;;;6262748;22;19919;-87
2022/08/07 11:37:43;;;;;;;;;;;;;;;;;;6260094;22;20390;-86
2022/08/07 11:40:17;;;;;;;;;;;;;;;;;;6286431;22;19946;-87
2022/08/07 11:42:43;;;;;;;;;;;;;;;;;;6236319;22;19918;-86
2022/08/07 11:45:09;;;;;;;;;;;;;;;;;;6259937;22;20369;-86
2022/08/07 11:47:39;;;;;;;;;;;;;;;;;;6236784;22;20559;-87
2022/08/07 11:50:05;;;;;;;;;;;;;;;;;;6234362;22;19965;-87
2022/08/07 11:52:37;;;;;;;;;;;;;;;;;;6286431;22;20304;-87
2022/08/07 11:55:03;;;;;;;;;;;;;;;;;;6261335;22;19996;-86
2022/08/07 11:57:30;;;;;;;;;;;;;;;;;;6238358;22;19929;-86
2022/08/07 11:59:56;;;;;;;;;;;;;;;;;;6264321;22;19915;-86
2022/08/07 12:02:22;;;;;;;;;;;;;;;;;;6261222;22;19957;-86
2022/08/07 12:04:48;;;;;;;;;;;;;;;;;;6293260;22;19911;-85
2022/08/07 12:07:14;;;;;;;;;;;;;;;;;;6261890;22;19968;-87
2022/08/07 12:09:41;;;;;;;;;;;;;;;;;;6292337;22;19915;-85
2022/08/07 12:12:07;;;;;;;;;;;;;;;;;;6264181;22;19915;-86
2022/08/07 12:14:33;;;;;;;;;;;;;;;;;;6266281;22;20316;-86
2022/08/07 12:16:59;;;;;;;;;;;;;;;;;;6262204;22;19910;-86
2022/08/07 12:19:25;;;;;;;;;;;;;;;;;;6264308;22;20028;-86
2022/08/07 12:21:51;;;;;;;;;;;;;;;;;;6268047;22;19997;-85
2022/08/07 12:24:17;;;;;;;;;;;;;;;;;;6263263;22;19922;-86
2022/08/07 12:26:43;;;;;;;;;;;;;;;;;;6266836;22;19950;-86
2022/08/07 12:29:09;;;;;;;;;;;;;;;;;;6264939;22;19918;-86
2022/08/07 12:31:35;;;;;;;;;;;;;;;;;;6266614;22;19919;-85
2022/08/07 12:34:01;;;;;;;;;;;;;;;;;;6265327;22;19915;-86
2022/08/07 12:36:29;;;;;;;;;;;;;;;;;;6266053;22;20185;-86
2022/08/07 12:38:55;;;;;;;;;;;;;;;;;;6265124;22;19919;-85
2022/08/07 12:41:24;;;;;;;;;;;;;;;;;;6262094;22;19919;-86
2022/08/07 12:43:50;;;;;;;;;;;;;;;;;;6266763;22;19957;-86
2022/08/07 12:46:20;;;;;;;;;;;;;;;;;;6264919;22;20401;-86
2022/08/07 12:48:47;;;;;;;;;;;;;;;;;;6266459;22;19914;-86
2022/08/07 12:51:18;;;;;;;;;;;;;;;;;;6263330;22;20480;-85
2022/08/07 12:53:44;;;;;;;;;;;;;;;;;;6242429;22;19946;-86
2022/08/07 13:11:40;;;;;;;;;;;;;;;;;;6116365;23;20020;-86
2022/08/07 13:48:41;;;;;;;;;;;;;;;;;;5984612;23;20001;-86
2022/08/07 14:00:41;;;;;;;;;;;;;;;;;;6067107;23;19921;-85
2022/08/07 14:03:11;;;;;;;;;;;;;;;;;;6018569;23;19924;-85
2022/08/07 14:05:50;;;;;;;;;;;;;;;;;;5995049;23;19921;-84
2022/08/07 14:08:25;;;;;;;;;;;;;;;;;;5995926;23;20047;-85
2022/08/07 14:10:56;;;;;;;;;;;;;;;;;;6076506;23;20307;-84
2022/08/07 14:13:43;;;;;;;;;;;;;;;;;;6123270;23;19955;-85
2022/08/07 14:16:30;;;;;;;;;;;;;;;;;;;;;
2022/08/07 14:19:10;;;;;;;;;;;;;;;;;;6172405;23;19916;-85
2022/08/07 14:21:44;;;;;;;;;;;;;;;;;;6124316;23;19919;-85
2022/08/07 14:24:10;;;;;;;;;;;;;;;;;;6103580;23;20032;-85
2022/08/07 14:26:39;;;;;;;;;;;;;;;;;;6112576;23;19916;-85
2022/08/07 14:29:18;;;;;;;;;;;;;;;;;;6072515;23;19923;-84
2022/08/07 14:34:36;;;;;;;;;;;;;;;;;;6050001;23;19952;-85
2022/08/07 14:37:04;;;;;;;;;;;;;;;;;;6026183;23;20286;-84
2022/08/07 14:39:32;;;;;;;;;;;;;;;;;;6004294;23;19918;-84
2022/08/07 14:57:46;;;;;;;;;;;;;;;;;;;;;
2022/08/07 15:04:05;;;;;;;;;;;;;;;;;;;;;
2022/08/07 15:16:43;;;;;;;;;;;;;;;;;;5975952;24;20424;-85
2022/08/07 15:20:11;;;;;;;;;;;;;;;;;;;;;
2022/08/07 15:28:41;;;;;;;;;;;;;;;;;;5855771;24;20013;-85
2022/08/07 15:46:03;;;;;;;;;;;;;;;;;;6235388;22;20323;-86
2022/08/07 15:49:05;;;;;;;;;;;;;;;;;;;;;
2022/08/07 15:54:45;;;;;;;;;;;;;;;;;;6267891;22;19914;-86
2022/08/07 15:57:11;;;;;;;;;;;;;;;;;;6233595;22;19915;-85
2022/08/07 15:59:38;;;;;;;;;;;;;;;;;;6233666;22;20336;-86
2022/08/07 16:02:04;;;;;;;;;;;;;;;;;;6232857;22;19969;-85
2022/08/07 16:04:33;;;;;;;;;;;;;;;;;;6231487;22;19961;-86
2022/08/07 16:07:02;;;;;;;;;;;;;;;;;;6258857;22;19927;-85
2022/08/07 16:09:28;;;;;;;;;;;;;;;;;;6239098;22;20231;-85
2022/08/07 16:11:56;;;;;;;;;;;;;;;;;;6290412;22;19914;-86
2022/08/07 16:14:28;;;;;;;;;;;;;;;;;;6265188;22;20171;-86
2022/08/07 16:16:57;;;;;;;;;;;;;;;;;;6239494;22;19911;-85
2022/08/07 16:58:11;;;;;;;;;;;;;;;;;;6300229;22;20179;-86
2022/08/07 17:00:38;;;;;;;;;;;;;;;;;;6296588;22;19918;-85
2022/08/07 17:03:05;;;;;;;;;;;;;;;;;;6292139;22;20307;-86
2022/08/07 17:05:32;;;;;;;;;;;;;;;;;;6300247;22;19940;-86
2022/08/07 17:07:58;;;;;;;;;;;;;;;;;;6327004;22;19959;-86
2022/08/07 17:10:26;;;;;;;;;;;;;;;;;;6324941;22;19910;-86
2022/08/07 17:12:52;;;;;;;;;;;;;;;;;;6352787;22;19921;-86
2022/08/07 17:15:19;;;;;;;;;;;;;;;;;;6324780;22;20008;-86
2022/08/07 17:17:46;;;;;;;;;;;;;;;;;;6325771;22;19945;-86
2022/08/07 17:20:14;;;;;;;;;;;;;;;;;;6323680;22;20321;-87
2022/08/07 17:22:41;;;;;;;;;;;;;;;;;;6325897;22;19918;-86
2022/08/07 17:25:28;;;;;;;;;;;;;;;;;;6320328;22;19914;-87
2022/08/07 17:27:55;;;;;;;;;;;;;;;;;;6290542;22;19968;-86
2022/08/07 17:30:35;;;;;;;;;;;;;;;;;;6294831;22;19918;-86
2022/08/07 17:33:03;;;;;;;;;;;;;;;;;;6291994;22;19981;-86
2022/08/07 17:35:34;;;;;;;;;;;;;;;;;;6320345;22;19921;-86
2022/08/07 17:38:03;;;;;;;;;;;;;;;;;;6314958;22;19971;-86
2022/08/07 17:40:32;;;;;;;;;;;;;;;;;;6293351;22;19914;-86
2022/08/07 17:42:59;;;;;;;;;;;;;;;;;;6293342;22;19921;-86
2022/08/07 17:45:26;;;;;;;;;;;;;;;;;;6318425;22;20265;-85
2022/08/07 17:47:54;;;;;;;;;;;;;;;;;;6293046;22;19968;-86
2022/08/07 17:50:21;;;;;;;;;;;;;;;;;;6291420;22;19915;-86
2022/08/07 17:52:48;;;;;;;;;;;;;;;;;;6318777;22;19942;-85
2022/08/07 17:55:14;;;;;;;;;;;;;;;;;;6290419;22;19918;-86
2022/08/07 17:57:41;;;;;;;;;;;;;;;;;;6294235;22;20018;-86
2022/08/07 18:00:13;;;;;;;;;;;;;;;;;;6316581;22;19918;-85
2022/08/07 18:02:41;;;;;;;;;;;;;;;;;;6295224;22;20216;-86
2022/08/07 18:05:09;;;;;;;;;;;;;;;;;;6291391;22;19910;-85
2022/08/07 18:07:37;;;;;;;;;;;;;;;;;;6291871;22;19933;-86
2022/08/07 18:10:14;;;;;;;;;;;;;;;;;;6347348;22;19933;-85
2022/08/07 18:12:56;;;;;;;;;;;;;;;;;;6354158;22;20011;-86
2022/08/07 18:15:23;;;;;;;;;;;;;;;;;;6322928;22;19914;-85
2022/08/07 18:17:50;;;;;;;;;;;;;;;;;;6326143;22;19921;-85
2022/08/07 18:20:16;;;;;;;;;;;;;;;;;;6350213;22;19977;-85
2022/08/07 18:22:57;;;;;;;;;;;;;;;;;;6331286;22;19920;-85
2022/08/07 18:25:26;;;;;;;;;;;;;;;;;;6292564;22;19910;-85
2022/08/07 18:27:52;;;;;;;;;;;;;;;;;;6291959;22;19968;-86
2022/08/07 18:30:25;;;;;;;;;;;;;;;;;;6289972;22;20406;-86
2022/08/07 18:32:52;;;;;;;;;;;;;;;;;;6291649;22;20191;-86
2022/08/07 18:35:20;;;;;;;;;;;;;;;;;;6290435;22;19922;-86
2022/08/07 18:37:47;;;;;;;;;;;;;;;;;;6292314;22;20353;-85
2022/08/07 18:40:14;;;;;;;;;;;;;;;;;;6289305;22;19964;-85
2022/08/07 18:42:40;;;;;;;;;;;;;;;;;;6317825;22;19914;-85
2022/08/07 18:45:08;;;;;;;;;;;;;;;;;;6291260;22;20119;-86
2022/08/07 18:47:35;;;;;;;;;;;;;;;;;;6295459;22;19975;-86
2022/08/07 18:50:06;;;;;;;;;;;;;;;;;;6318627;22;20053;-86
2022/08/07 18:52:34;;;;;;;;;;;;;;;;;;6291926;22;19914;-86
2022/08/07 18:55:20;;;;;;;;;;;;;;;;;;6259568;22;21014;-86
2022/08/07 18:57:47;;;;;;;;;;;;;;;;;;6242119;22;20240;-86
2022/08/07 19:00:30;;;;;;;;;;;;;;;;;;6255613;22;19926;-86
2022/08/07 19:02:57;;;;;;;;;;;;;;;;;;6232836;22;19911;-85
2022/08/07 19:05:24;;;;;;;;;;;;;;;;;;6228172;22;19915;-86
2022/08/07 19:07:59;;;;;;;;;;;;;;;;;;6253374;22;20106;-86
2022/08/07 20:05:05;;;;;;;;;;;;;;;;;;6137776;23;20481;-86
2022/08/07 20:39:24;;;;;;;;;;;;;;;;;;;;;
2022/08/07 20:55:17;;;;;;;;;;;;;;;;;;5829660;24;19923;-86
2022/08/07 21:08:13;;;;;;;;;;;;;;;;;;5974848;24;19917;-86
2022/08/07 21:13:54;;;;;;;;;;;;;;;;;;5973279;24;19916;-86
2022/08/07 21:35:23;;;;;;;;;;;;;;;;;;6103578;23;20037;-87
2022/08/07 21:38:14;;;;;;;;;;;;;;;;;;6103940;23;20007;-87
2022/08/07 21:59:50;;;;;;;;;;;;;;;;;;6086576;23;19944;-87
2022/08/07 22:03:00;;;;;;;;;;;;;;;;;;;;;
2022/08/07 22:05:59;;;;;;;;;;;;;;;;;;;;;
2022/08/07 22:08:25;;;;;;;;;;;;;;;;;;6190133;23;20080;-87
2022/08/07 22:11:38;;;;;;;;;;;;;;;;;;;;;